Terminal Aerodrome Forecast
Issued by NWS

Home | Current Version | Previous Version | Text Only | Print | Product List | Glossary On
Versions: 1 2 3 4 5 6 7 8 9 10 11 12 13 14 15 16 17 18
028
FTUS42 KMLB 222340
TAFFPR
TAF
KFPR 222340Z 2300/2324 11004KT P6SM VCSH FEW020 BKN050
     FM231500 12009KT P6SM VCSH SCT025 BKN050
      TEMPO 2316/2318 3SM SHRA BKN025=

USA.gov is the U.S. government's official web portal to all federal, state and local government web resources and services.